createdAt,value
2023-10-20T00:00:43.738Z,42.33
2023-10-20T00:03:11.068Z,45.90
2023-10-20T00:05:38.524Z,42.33
2023-10-20T00:08:05.887Z,44.60
2023-10-20T00:10:42.339Z,48.55
2023-10-20T00:13:09.328Z,48.78
2023-10-20T00:15:36.267Z,45.13
2023-10-20T00:18:49.796Z,50.47
2023-10-20T00:21:16.950Z,47.67
2023-10-20T00:23:43.866Z,45.17
2023-10-20T00:26:11.003Z,47.13
2023-10-20T00:28:38.036Z,46.63
2023-10-20T00:31:05.045Z,45.13
2023-10-20T00:33:32.079Z,44.40
2023-10-20T00:35:59.340Z,42.45
2023-10-20T00:38:26.323Z,41.85
2023-10-20T00:40:54.276Z,43.03
2023-10-20T00:43:21.233Z,41.40
2023-10-20T00:45:49.007Z,46.15
2023-10-20T00:48:16.614Z,40.55
2023-10-20T00:50:44.921Z,41.28
2023-10-20T00:53:12.553Z,37.25
2023-10-20T00:55:41.192Z,43.00
2023-10-20T00:58:09.653Z,42.10
2023-10-20T01:00:36.726Z,43.75
2023-10-20T01:03:04.044Z,38.83
2023-10-20T01:05:31.297Z,39.97
2023-10-20T01:07:58.360Z,41.42
2023-10-20T01:10:25.714Z,46.28
2023-10-20T01:12:52.686Z,40.95
2023-10-20T01:15:19.697Z,42.25
2023-10-20T01:17:46.866Z,43.65
2023-10-20T01:20:14.351Z,44.58
2023-10-20T01:22:42.192Z,45.10
2023-10-20T01:25:09.489Z,42.80
2023-10-20T01:27:36.409Z,44.88
2023-10-20T01:30:03.493Z,44.00
2023-10-20T01:32:30.560Z,45.53
2023-10-20T01:34:57.553Z,43.30
2023-10-20T01:37:24.470Z,43.00
2023-10-20T01:39:51.560Z,41.60
2023-10-20T01:42:18.391Z,39.47
2023-10-20T01:44:45.241Z,43.05
2023-10-20T01:47:12.201Z,44.20
2023-10-20T01:49:39.031Z,42.47
2023-10-20T01:52:06.134Z,39.25
2023-10-20T01:54:33.172Z,40.13
2023-10-20T01:57:00.226Z,39.60
2023-10-20T01:59:27.164Z,40.58
2023-10-20T02:01:54.517Z,37.08
2023-10-20T02:04:21.355Z,34.40
2023-10-20T02:06:48.319Z,38.03
2023-10-20T02:09:15.458Z,38.17
2023-10-20T02:11:42.637Z,37.78
2023-10-20T02:14:09.633Z,35.60
2023-10-20T02:16:37.408Z,36.53
2023-10-20T02:19:05.894Z,33.83
2023-10-20T02:21:32.869Z,34.65
2023-10-20T02:23:59.988Z,33.70
2023-10-20T02:26:26.900Z,36.95
2023-10-20T02:28:53.732Z,37.35
2023-10-20T02:31:20.738Z,36.58
2023-10-20T02:33:48.551Z,36.08
2023-10-20T02:36:19.821Z,32.83
2023-10-20T02:38:48.045Z,32.40
2023-10-20T02:41:18.008Z,35.20
2023-10-20T02:43:45.015Z,36.45
2023-10-20T02:46:13.696Z,35.30
2023-10-20T02:48:41.291Z,37.45
2023-10-20T02:51:12.107Z,35.90
2023-10-20T02:53:42.430Z,35.90
2023-10-20T02:56:13.795Z,41.00
2023-10-20T02:58:41.396Z,34.95
2023-10-20T03:01:09.180Z,38.33
2023-10-20T03:03:36.832Z,38.63
2023-10-20T03:06:05.205Z,39.28
2023-10-20T03:08:32.828Z,40.80
2023-10-20T03:10:59.852Z,40.00
2023-10-20T03:13:27.544Z,39.30
2023-10-20T03:15:55.322Z,42.58
2023-10-20T03:18:22.533Z,39.45
2023-10-20T03:20:50.045Z,41.65
2023-10-20T03:23:18.065Z,40.38
2023-10-20T03:25:45.218Z,45.53
2023-10-20T03:28:12.161Z,54.50
2023-10-20T03:30:39.951Z,57.58
2023-10-20T03:33:14.101Z,51.47
2023-10-20T03:35:41.947Z,53.65
2023-10-20T03:38:10.321Z,60.58
2023-10-20T03:40:39.251Z,58.80
2023-10-20T03:43:07.922Z,60.47
2023-10-20T03:45:50.872Z,55.55
2023-10-20T03:48:18.171Z,56.70
2023-10-20T03:50:45.780Z,53.35
2023-10-20T03:53:17.098Z,54.03
2023-10-20T03:55:44.321Z,53.75
2023-10-20T03:58:12.416Z,57.83
2023-10-20T04:00:43.157Z,57.08
2023-10-20T04:03:10.349Z,51.97
2023-10-20T04:05:37.449Z,43.55
2023-10-20T04:08:07.229Z,50.63
2023-10-20T04:10:35.625Z,47.75
2023-10-20T04:13:03.659Z,52.58
2023-10-20T04:15:33.956Z,58.55
2023-10-20T04:18:01.102Z,58.80
2023-10-20T04:20:28.135Z,53.65
2023-10-20T04:22:55.082Z,56.53
2023-10-20T04:25:25.234Z,48.63
2023-10-20T04:27:58.841Z,48.55
2023-10-20T04:30:44.793Z,50.65
2023-10-20T04:33:30.501Z,51.25
2023-10-20T04:36:16.144Z,52.00
2023-10-20T04:39:01.740Z,45.40
2023-10-20T04:41:47.619Z,44.47
2023-10-20T04:44:17.444Z,41.97
2023-10-20T04:47:01.827Z,44.42
2023-10-20T04:49:29.154Z,42.08
2023-10-20T04:52:28.130Z,41.38
2023-10-20T04:55:01.096Z,41.53
2023-10-20T04:57:37.379Z,41.83
2023-10-20T05:00:10.564Z,41.17
2023-10-20T05:02:47.099Z,41.08
2023-10-20T05:05:29.129Z,46.88
2023-10-20T05:08:06.457Z,43.95
2023-10-20T05:10:34.021Z,44.40
2023-10-20T05:13:01.082Z,47.03
2023-10-20T05:15:32.548Z,48.30
2023-10-20T05:17:59.595Z,45.67
2023-10-20T05:20:26.728Z,63.35
2023-10-20T05:22:53.800Z,57.17
2023-10-20T05:25:20.626Z,49.85
2023-10-20T05:27:47.473Z,52.00
2023-10-20T05:30:14.790Z,52.08
2023-10-20T05:32:41.734Z,52.88
2023-10-20T05:35:10.560Z,56.40
2023-10-20T05:37:37.674Z,52.88
2023-10-20T05:40:05.885Z,47.33
2023-10-20T05:42:33.206Z,48.67
2023-10-20T05:45:04.106Z,51.90
2023-10-20T05:47:31.767Z,47.35
2023-10-20T05:50:00.446Z,48.03
2023-10-20T05:52:27.696Z,45.78
2023-10-20T05:54:55.363Z,42.35
2023-10-20T05:57:23.687Z,43.17
2023-10-20T05:59:51.281Z,40.95
2023-10-20T06:02:18.233Z,43.67
2023-10-20T06:04:45.148Z,49.80
2023-10-20T06:07:12.312Z,47.50
2023-10-20T06:09:39.161Z,46.58
2023-10-20T06:12:08.250Z,43.40
2023-10-20T06:14:37.582Z,42.35
2023-10-20T06:17:04.777Z,40.83
2023-10-20T06:19:32.758Z,40.47
2023-10-20T06:22:01.608Z,42.53
2023-10-20T06:24:29.270Z,37.95
2023-10-20T06:27:03.802Z,40.55
2023-10-20T06:29:34.703Z,39.25
2023-10-20T06:32:08.129Z,40.42
2023-10-20T06:34:41.968Z,38.95
2023-10-20T06:37:15.509Z,37.10
2023-10-20T06:39:42.875Z,37.17
2023-10-20T06:42:10.761Z,40.55
2023-10-20T06:44:38.016Z,42.83
2023-10-20T06:47:05.860Z,33.42
2023-10-20T06:49:34.088Z,34.42
2023-10-20T06:52:05.046Z,34.28
2023-10-20T06:54:32.562Z,30.23
2023-10-20T06:57:00.621Z,32.88
2023-10-20T06:59:27.817Z,31.95
2023-10-20T07:02:01.181Z,29.10
2023-10-20T07:04:29.538Z,32.15
2023-10-20T07:06:58.635Z,30.25
2023-10-20T07:09:25.751Z,27.88
2023-10-20T07:11:53.476Z,32.15
2023-10-20T07:14:20.465Z,24.50
2023-10-20T07:16:47.766Z,27.63
2023-10-20T07:19:14.749Z,29.20
2023-10-20T07:21:41.636Z,25.08
2023-10-20T07:24:08.772Z,23.52
2023-10-20T07:26:36.141Z,31.20
2023-10-20T07:29:03.554Z,25.33
2023-10-20T07:31:30.518Z,27.30
2023-10-20T07:33:57.638Z,24.98
2023-10-20T07:36:24.582Z,29.85
2023-10-20T07:38:51.803Z,24.83
2023-10-20T07:41:18.910Z,31.10
2023-10-20T07:43:45.805Z,28.70
2023-10-20T07:46:19.173Z,36.15
2023-10-20T07:48:46.660Z,30.17
2023-10-20T07:51:13.862Z,32.67
2023-10-20T07:53:40.878Z,31.90
2023-10-20T07:56:07.819Z,30.02
2023-10-20T07:58:34.759Z,25.33
2023-10-20T08:01:04.533Z,28.80
2023-10-20T08:03:31.744Z,19.65
2023-10-20T08:06:01.271Z,24.10
2023-10-20T08:08:28.409Z,21.27
2023-10-20T08:10:55.452Z,18.40
2023-10-20T08:13:22.407Z,17.75
2023-10-20T08:15:49.317Z,15.70
2023-10-20T08:18:17.736Z,19.35
2023-10-20T08:20:44.740Z,16.77
2023-10-20T08:23:11.688Z,20.25
2023-10-20T08:25:39.164Z,21.35
2023-10-20T08:28:07.174Z,16.50
2023-10-20T08:30:35.022Z,19.13
2023-10-20T08:33:03.167Z,19.45
2023-10-20T08:35:31.665Z,20.58
2023-10-20T08:37:58.584Z,20.70
2023-10-20T08:40:26.484Z,20.80
2023-10-20T08:42:53.990Z,22.02
2023-10-20T08:45:24.310Z,25.60
2023-10-20T08:47:52.600Z,24.02
2023-10-20T08:50:21.497Z,23.88
2023-10-20T08:52:49.002Z,23.58
2023-10-20T08:55:16.001Z,24.10
2023-10-20T08:57:42.895Z,23.58
2023-10-20T09:00:20.496Z,21.40
2023-10-20T09:02:48.145Z,18.98
2023-10-20T09:05:23.918Z,20.92
2023-10-20T09:08:01.566Z,21.65
2023-10-20T09:10:28.495Z,19.52
2023-10-20T09:13:01.688Z,21.63
2023-10-20T09:15:31.390Z,18.92
2023-10-20T09:18:00.021Z,20.98
2023-10-20T09:20:27.728Z,18.38
2023-10-20T09:22:54.830Z,23.92
2023-10-20T09:25:21.757Z,18.48
2023-10-20T09:27:48.726Z,20.75
2023-10-20T09:30:16.416Z,20.35
2023-10-20T09:32:43.359Z,23.83
2023-10-20T09:35:10.539Z,22.55
2023-10-20T09:37:38.110Z,25.48
2023-10-20T09:40:10.439Z,22.52
2023-10-20T09:42:52.881Z,21.80
2023-10-20T09:45:25.927Z,19.60
2023-10-20T09:47:59.184Z,21.33
2023-10-20T09:50:26.760Z,20.55
2023-10-20T09:52:54.651Z,24.67
2023-10-20T09:55:22.302Z,21.83
2023-10-20T09:57:50.068Z,18.50
2023-10-20T10:00:28.891Z,20.98
2023-10-20T10:03:03.551Z,21.30
2023-10-20T10:05:31.483Z,20.55
2023-10-20T10:08:09.441Z,20.45
2023-10-20T10:10:39.827Z,25.55
2023-10-20T10:13:07.131Z,17.92
2023-10-20T10:15:41.758Z,18.70
2023-10-20T10:18:13.464Z,19.70
2023-10-20T10:20:45.114Z,21.13
2023-10-20T10:23:14.049Z,19.15
2023-10-20T10:25:47.301Z,22.05
2023-10-20T10:28:22.094Z,20.58
2023-10-20T10:30:55.463Z,21.05
2023-10-20T10:33:24.353Z,17.33
2023-10-20T10:36:04.747Z,19.63
2023-10-20T10:38:46.200Z,21.88
2023-10-20T10:41:13.165Z,17.40
2023-10-20T10:43:40.097Z,20.75
2023-10-20T10:46:07.875Z,18.48
2023-10-20T10:48:36.705Z,19.33
2023-10-20T10:51:06.748Z,20.27
2023-10-20T10:53:33.862Z,21.27
2023-10-20T10:56:00.825Z,19.38
2023-10-20T10:58:27.986Z,23.33
2023-10-20T11:00:55.944Z,22.92
2023-10-20T11:03:26.093Z,20.73
2023-10-20T11:05:53.772Z,18.70
2023-10-20T11:08:21.075Z,23.67
2023-10-20T11:10:48.406Z,25.65
2023-10-20T11:13:17.527Z,27.00
2023-10-20T11:15:45.461Z,17.40
2023-10-20T11:18:12.776Z,26.70
2023-10-20T11:20:45.076Z,22.02
2023-10-20T11:23:14.079Z,19.67
2023-10-20T11:25:44.411Z,19.23
2023-10-20T11:28:11.560Z,18.55
2023-10-20T11:30:40.319Z,24.17
2023-10-20T11:33:07.844Z,23.17
2023-10-20T11:35:34.949Z,20.80
2023-10-20T11:38:02.381Z,21.50
2023-10-20T11:40:29.627Z,22.23
2023-10-20T11:42:58.391Z,19.67
2023-10-20T11:45:25.847Z,21.17
2023-10-20T11:47:53.058Z,24.30
2023-10-20T11:50:20.667Z,20.23
2023-10-20T11:52:48.681Z,20.70
2023-10-20T11:55:15.984Z,23.50
2023-10-20T11:57:43.404Z,17.42
2023-10-20T12:00:12.060Z,21.98
2023-10-20T12:02:39.724Z,23.30
2023-10-20T12:05:07.854Z,19.88
2023-10-20T12:07:35.962Z,25.27
2023-10-20T12:10:05.792Z,22.23
2023-10-20T12:12:32.884Z,23.52
2023-10-20T12:15:02.318Z,24.88
2023-10-20T12:17:29.890Z,21.48
2023-10-20T12:19:56.873Z,26.48
2023-10-20T12:22:24.380Z,24.00
2023-10-20T12:24:51.627Z,21.27
2023-10-20T12:27:18.907Z,21.88
2023-10-20T12:29:45.855Z,17.67
2023-10-20T12:32:14.294Z,20.05
2023-10-20T12:34:41.674Z,18.80
2023-10-20T12:37:09.120Z,18.00
2023-10-20T12:39:36.166Z,24.98
2023-10-20T12:42:06.485Z,20.65
2023-10-20T12:44:38.283Z,22.58
2023-10-20T12:47:07.372Z,23.20
2023-10-20T12:49:34.449Z,21.08
2023-10-20T12:52:01.485Z,27.38
2023-10-20T12:54:28.337Z,23.58
2023-10-20T12:56:55.464Z,18.23
2023-10-20T12:59:22.522Z,28.48
2023-10-20T13:01:49.529Z,25.83
2023-10-20T13:04:17.621Z,24.25
2023-10-20T13:06:58.300Z,24.10
2023-10-20T13:09:27.340Z,23.83
2023-10-20T13:11:54.360Z,30.23
2023-10-20T13:14:21.387Z,27.95
2023-10-20T13:16:48.454Z,24.58
2023-10-20T13:19:16.635Z,21.70
2023-10-20T13:21:44.267Z,40.67
2023-10-20T13:24:12.394Z,28.20
2023-10-20T13:26:39.668Z,24.42
2023-10-20T13:29:07.266Z,30.77
2023-10-20T13:31:35.148Z,29.13
2023-10-20T13:34:03.818Z,31.20
2023-10-20T13:36:31.053Z,27.10
2023-10-20T13:38:58.147Z,32.42
2023-10-20T13:41:25.578Z,26.55
2023-10-20T13:43:53.280Z,25.95
2023-10-20T13:46:20.610Z,22.00
2023-10-20T13:48:48.408Z,21.13
2023-10-20T13:51:15.494Z,23.92
2023-10-20T13:53:42.541Z,20.55
2023-10-20T13:56:09.485Z,20.42
2023-10-20T13:58:36.470Z,25.48
2023-10-20T14:01:04.111Z,22.65
2023-10-20T14:03:31.342Z,27.83
2023-10-20T14:05:58.550Z,28.77
2023-10-20T14:08:25.838Z,27.00
2023-10-20T14:10:55.348Z,29.38
2023-10-20T14:13:22.391Z,26.83
2023-10-20T14:15:50.850Z,24.00
2023-10-20T14:18:18.268Z,25.83
2023-10-20T14:20:45.445Z,28.70
2023-10-20T14:23:12.448Z,25.40
2023-10-20T14:25:39.500Z,23.05
2023-10-20T14:28:07.090Z,27.55
2023-10-20T14:30:34.649Z,24.60
2023-10-20T14:33:02.004Z,29.45
2023-10-20T14:35:29.106Z,31.60
2023-10-20T14:37:57.826Z,25.27
2023-10-20T14:40:24.756Z,29.60
2023-10-20T14:42:51.549Z,27.42
2023-10-20T14:45:18.801Z,28.38
2023-10-20T14:47:45.829Z,27.38
2023-10-20T14:50:12.703Z,29.77
2023-10-20T14:52:41.326Z,27.65
2023-10-20T14:55:10.555Z,31.08
2023-10-20T14:57:37.739Z,28.20
2023-10-20T15:00:10.824Z,26.38
2023-10-20T15:02:39.530Z,31.02
2023-10-20T15:05:07.403Z,27.55
2023-10-20T15:07:37.439Z,32.17
2023-10-20T15:10:05.071Z,31.63
2023-10-20T15:12:31.972Z,30.38
2023-10-20T15:14:59.021Z,32.38
2023-10-20T15:17:26.240Z,35.58
2023-10-20T15:19:53.864Z,42.00
2023-10-20T15:22:20.882Z,49.67
2023-10-20T15:24:49.684Z,48.45
2023-10-20T15:27:19.494Z,49.95
2023-10-20T15:29:47.170Z,44.65
2023-10-20T15:32:16.583Z,45.30
2023-10-20T15:34:43.692Z,44.13
2023-10-20T15:37:10.878Z,38.47
2023-10-20T15:39:49.131Z,36.00
2023-10-20T15:42:19.947Z,32.88
2023-10-20T15:44:46.931Z,35.53
2023-10-20T15:47:14.084Z,37.70
2023-10-20T15:49:41.348Z,36.35
2023-10-20T15:52:09.260Z,36.17
2023-10-20T15:54:36.168Z,30.95
2023-10-20T15:57:03.391Z,28.95
2023-10-20T15:59:31.275Z,31.50
2023-10-20T16:01:58.194Z,32.65
2023-10-20T16:04:25.674Z,34.42
2023-10-20T16:06:52.739Z,36.78
2023-10-20T16:09:20.272Z,31.55
2023-10-20T16:11:47.551Z,33.90
2023-10-20T16:14:14.510Z,31.40
2023-10-20T16:16:41.421Z,31.38
2023-10-20T16:19:08.467Z,34.00
2023-10-20T16:21:35.282Z,33.75
2023-10-20T16:24:02.240Z,36.22
2023-10-20T16:26:29.415Z,37.80
2023-10-20T16:28:56.313Z,36.15
2023-10-20T16:31:23.525Z,33.88
2023-10-20T16:33:52.043Z,34.55
2023-10-20T16:36:19.547Z,33.92
2023-10-20T16:38:47.732Z,35.75
2023-10-20T16:41:14.732Z,35.13
2023-10-20T16:43:41.584Z,40.42
2023-10-20T16:46:08.578Z,44.13
2023-10-20T16:48:35.960Z,42.58
2023-10-20T16:51:03.248Z,39.92
2023-10-20T16:53:30.610Z,44.33
2023-10-20T16:56:01.088Z,44.63
2023-10-20T16:58:28.736Z,49.83
2023-10-20T17:01:05.458Z,48.30
2023-10-20T17:03:34.077Z,40.90
2023-10-20T17:06:05.880Z,48.88
2023-10-20T17:08:33.077Z,46.05
2023-10-20T17:11:04.580Z,40.22
2023-10-20T17:13:32.243Z,42.63
2023-10-20T17:16:05.224Z,39.40
2023-10-20T17:18:32.739Z,35.85
2023-10-20T17:21:08.797Z,38.50
2023-10-20T17:23:38.779Z,40.72
2023-10-20T17:26:07.021Z,34.22
2023-10-20T17:28:34.190Z,40.38
2023-10-20T17:31:06.112Z,40.75
2023-10-20T17:33:33.591Z,40.72
2023-10-20T17:36:06.059Z,44.13
2023-10-20T17:38:33.623Z,49.08
2023-10-20T17:41:08.724Z,40.75
2023-10-20T17:43:37.422Z,47.47
2023-10-20T17:46:09.129Z,45.58
2023-10-20T17:48:36.256Z,41.08
2023-10-20T17:51:04.003Z,44.38
2023-10-20T17:53:32.248Z,41.72
2023-10-20T17:56:04.577Z,38.88
2023-10-20T17:58:31.812Z,44.63
2023-10-20T18:01:08.707Z,41.45
2023-10-20T18:03:37.697Z,44.55
2023-10-20T18:06:18.759Z,40.78
2023-10-20T18:08:53.346Z,40.28
2023-10-20T18:11:22.018Z,37.53
2023-10-20T18:13:52.074Z,37.58
2023-10-20T18:16:21.551Z,44.50
2023-10-20T18:18:52.653Z,42.13
2023-10-20T18:21:22.541Z,36.83
2023-10-20T18:23:49.575Z,34.53
2023-10-20T18:26:17.704Z,38.08
2023-10-20T18:28:45.035Z,39.30
2023-10-20T18:31:13.767Z,35.47
2023-10-20T18:33:41.299Z,42.83
2023-10-20T18:36:08.822Z,35.40
2023-10-20T18:38:35.843Z,39.30
2023-10-20T18:41:04.391Z,37.78
2023-10-20T18:43:31.485Z,39.30
2023-10-20T18:46:01.143Z,38.00
2023-10-20T18:48:28.505Z,36.63
2023-10-20T18:51:07.597Z,37.75
2023-10-20T18:53:36.055Z,36.83
2023-10-20T18:56:04.727Z,37.70
2023-10-20T18:58:32.008Z,35.63
2023-10-20T19:01:00.071Z,41.38
2023-10-20T19:03:27.577Z,33.83
2023-10-20T19:05:54.566Z,35.38
2023-10-20T19:08:21.541Z,40.95
2023-10-20T19:10:48.443Z,42.30
2023-10-20T19:13:16.376Z,34.95
2023-10-20T19:15:46.319Z,40.65
2023-10-20T19:18:13.355Z,44.38
2023-10-20T19:20:40.314Z,43.92
2023-10-20T19:23:10.000Z,48.03
2023-10-20T19:25:39.657Z,40.53
2023-10-20T19:28:07.837Z,38.22
2023-10-20T19:30:38.096Z,41.17
2023-10-20T19:33:05.271Z,44.58
2023-10-20T19:35:34.396Z,45.08
2023-10-20T19:38:01.477Z,42.85
2023-10-20T19:40:28.352Z,40.13
2023-10-20T19:42:57.122Z,46.17
2023-10-20T19:45:24.088Z,41.13
2023-10-20T19:47:51.007Z,40.58
2023-10-20T19:50:17.930Z,47.53
2023-10-20T19:52:45.152Z,45.83
2023-10-20T19:55:12.076Z,42.67
2023-10-20T19:57:38.913Z,43.55
2023-10-20T20:00:06.700Z,42.30
2023-10-20T20:02:33.711Z,45.88
2023-10-20T20:05:01.188Z,40.88
2023-10-20T20:07:28.801Z,38.80
2023-10-20T20:09:55.642Z,38.85
2023-10-20T20:12:22.565Z,40.45
2023-10-20T20:14:49.549Z,45.33
2023-10-20T20:17:16.459Z,49.30
2023-10-20T20:19:43.410Z,46.05
2023-10-20T20:22:10.584Z,46.85
2023-10-20T20:24:37.427Z,85.32
2023-10-20T20:27:04.545Z,60.75
2023-10-20T20:29:31.586Z,106.53
2023-10-20T20:31:58.424Z,217.65
2023-10-20T20:34:25.333Z,144.68
2023-10-20T20:36:52.494Z,314.75
2023-10-20T20:39:19.685Z,416.65
2023-10-20T20:41:46.705Z,732.47
2023-10-20T20:44:13.685Z,602.47
2023-10-20T20:46:40.624Z,512.75
2023-10-20T20:49:07.477Z,713.20
2023-10-20T20:51:34.404Z,477.75
2023-10-20T20:54:02.406Z,856.97
2023-10-20T20:56:29.243Z,730.13
2023-10-20T20:58:57.373Z,902.22
2023-10-20T21:01:24.534Z,787.90
2023-10-20T21:03:51.589Z,999.78
2023-10-20T21:06:18.534Z,1022.30
2023-10-20T21:08:47.676Z,474.67
2023-10-20T21:11:14.673Z,621.95
2023-10-20T21:13:43.168Z,726.55
2023-10-20T21:16:12.068Z,780.88
2023-10-20T21:18:39.484Z,766.40
2023-10-20T21:21:14.942Z,705.67
2023-10-20T21:23:45.927Z,725.97
2023-10-20T21:26:13.838Z,938.65
2023-10-20T21:28:41.001Z,653.13
2023-10-20T21:31:08.485Z,806.92
2023-10-20T21:33:35.794Z,594.30
2023-10-20T21:36:02.844Z,809.00
2023-10-20T21:38:29.851Z,783.22
2023-10-20T21:40:59.832Z,1050.30
2023-10-20T21:43:26.936Z,599.85
2023-10-20T21:45:58.577Z,597.47
2023-10-20T21:48:26.138Z,830.67
2023-10-20T21:51:01.162Z,857.28
2023-10-20T21:53:30.344Z,818.40
2023-10-20T21:56:09.924Z,322.40
2023-10-20T21:58:38.420Z,612.72
2023-10-20T22:01:07.431Z,1260.03
2023-10-20T22:03:34.731Z,1017.80
2023-10-20T22:06:02.231Z,775.53
2023-10-20T22:08:29.144Z,844.17
2023-10-20T22:10:56.888Z,717.15
2023-10-20T22:13:23.911Z,1051.93
2023-10-20T22:15:52.942Z,747.05
2023-10-20T22:18:20.412Z,1252.53
2023-10-20T22:20:47.358Z,794.90
2023-10-20T22:23:14.284Z,948.78
2023-10-20T22:25:41.319Z,748.85
2023-10-20T22:28:08.293Z,665.20
2023-10-20T22:30:35.441Z,794.33
2023-10-20T22:33:02.642Z,388.63
2023-10-20T22:35:29.859Z,753.20
2023-10-20T22:37:56.920Z,704.22
2023-10-20T22:40:24.384Z,324.48
2023-10-20T22:42:51.811Z,263.55
2023-10-20T22:45:18.897Z,1489.97
2023-10-20T22:47:46.194Z,937.70
2023-10-20T22:50:19.300Z,656.17
2023-10-20T22:52:50.245Z,762.47
2023-10-20T22:55:17.136Z,573.13
2023-10-20T22:57:44.235Z,548.78
2023-10-20T23:00:11.981Z,749.67
2023-10-20T23:02:40.036Z,753.03
2023-10-20T23:05:09.005Z,1201.65
2023-10-20T23:07:36.125Z,816.08
2023-10-20T23:10:04.932Z,747.78
2023-10-20T23:12:36.014Z,773.38
2023-10-20T23:15:03.244Z,650.83
2023-10-20T23:17:30.186Z,985.25
2023-10-20T23:19:57.866Z,733.45
2023-10-20T23:22:26.298Z,766.47
2023-10-20T23:24:53.984Z,848.28
2023-10-20T23:27:20.842Z,825.15
2023-10-20T23:29:47.848Z,850.10
2023-10-20T23:32:14.739Z,683.55
2023-10-20T23:34:42.053Z,902.60
2023-10-20T23:37:09.143Z,823.47
2023-10-20T23:39:37.081Z,662.22
2023-10-20T23:42:05.386Z,1058.70
2023-10-20T23:44:32.882Z,858.63
2023-10-20T23:46:59.819Z,586.58
2023-10-20T23:49:26.886Z,767.80
2023-10-20T23:51:53.772Z,663.80
2023-10-20T23:54:20.726Z,950.25
2023-10-20T23:56:47.753Z,1149.60
2023-10-20T23:59:15.644Z,727.63
